Time;durP1;ratioP1;P1;durP2;ratioP2;P2;SDS_P1;SDS_P2;PMS_P1;PMS_P2;Temp;Humidity;BMP_temperature;BMP_pressure;BME280_temperature;BME280_humidity;BME280_pressure;Samples;Min_cycle;Max_cycle;Signal;HPM_P1;HPM_P2
2022/05/22 00:00:07;;;;;;;1016.95;951.58;;;;;;;16.51;45.89;101227.63;692143;28;23611;-68
2022/05/22 00:00:33;;;;;;;1026.40;960.40;;;;;;;16.52;46.13;101235.59;687122;28;161662;-67
2022/05/22 00:00:54;;;;;;;1038.18;971.85;;;;;;;16.52;46.00;101232.88;690460;28;44093;-67
2022/05/22 00:01:16;;;;;;;1024.30;958.50;;;;;;;16.51;45.97;101239.34;691778;28;23491;-67
2022/05/22 00:01:38;;;;;;;1031.25;965.35;;;;;;;16.52;46.37;101234.72;691313;28;46333;-67
2022/05/22 00:02:00;;;;;;;1014.28;948.97;;;;;;;16.44;46.49;101219.41;692423;28;23458;-67
2022/05/22 00:02:21;;;;;;;1014.10;948.70;;;;;;;16.46;46.05;101230.13;691013;28;46776;-67
2022/05/22 00:02:42;;;;;;;1020.92;954.92;;;;;;;16.50;46.19;101237.66;691463;28;44350;-67
2022/05/22 00:03:04;;;;;;;1022.22;956.47;;;;;;;16.50;46.35;101229.47;692165;28;22396;-67
2022/05/22 00:03:26;;;;;;;1060.65;992.83;;;;;;;16.47;46.46;101229.88;691393;28;45196;-67
2022/05/22 00:03:47;;;;;;;1077.25;999.90;;;;;;;16.45;46.40;101223.81;692219;28;21540;-67
2022/05/22 00:04:08;;;;;;;1052.13;984.67;;;;;;;16.46;46.59;101235.56;692132;28;23627;-67
2022/05/22 00:04:30;;;;;;;1019.28;953.75;;;;;;;16.46;46.32;101232.84;688667;28;42681;-67
2022/05/22 00:04:52;;;;;;;1013.58;948.20;;;;;;;16.44;46.60;101233.03;688486;28;45343;-67
2022/05/22 00:05:16;;;;;;;1009.25;944.17;;;;;;;16.41;46.32;101228.00;689086;28;22397;-67
2022/05/22 00:05:39;;;;;;;1016.47;951.17;;;;;;;16.43;46.37;101231.34;687757;28;71116;-67
2022/05/22 00:06:03;;;;;;;1013.30;948.05;;;;;;;16.45;46.21;101239.34;687114;28;115348;-67
2022/05/22 00:06:24;;;;;;;1003.22;938.30;;;;;;;16.44;46.27;101235.78;692562;28;1645;-67
2022/05/22 00:06:45;;;;;;;1002.75;937.83;;;;;;;16.44;46.42;101229.47;691409;28;44378;-68
2022/05/22 00:07:07;;;;;;;1019.80;954.13;;;;;;;16.41;46.68;101228.00;692275;28;14471;-68
2022/05/22 00:07:29;;;;;;;1005.55;940.40;;;;;;;16.40;46.53;101227.13;691850;28;22380;-67
2022/05/22 00:07:51;;;;;;;1013.47;948.08;;;;;;;16.39;46.64;101239.13;691297;28;46374;-67
2022/05/22 00:08:13;;;;;;;1023.38;957.60;;;;;;;16.40;46.76;101234.50;690473;28;68368;-67
2022/05/22 00:08:34;;;;;;;1027.30;961.38;;;;;;;16.36;46.78;101231.34;693065;28;2968;-67
2022/05/22 00:08:57;;;;;;;1021.40;955.72;;;;;;;16.38;46.93;101236.59;691342;28;45260;-67
2022/05/22 00:09:18;;;;;;;1034.85;968.50;;;;;;;16.37;46.63;101227.56;690640;28;45259;-67
2022/05/22 00:09:39;;;;;;;1031.22;964.95;;;;;;;16.39;47.01;101233.66;692431;28;22541;-67
2022/05/22 00:10:01;;;;;;;1018.50;952.80;;;;;;;16.37;47.01;101235.72;692268;28;23516;-67
2022/05/22 00:10:22;;;;;;;1026.50;960.50;;;;;;;16.38;46.81;101234.69;691894;28;19576;-67
2022/05/22 00:10:44;;;;;;;1027.45;961.38;;;;;;;16.39;46.65;101230.94;693304;28;935;-67
2022/05/22 00:11:06;;;;;;;1023.60;957.80;;;;;;;16.39;46.88;101235.53;691440;28;22402;-67
2022/05/22 00:11:28;;;;;;;1021.92;956.03;;;;;;;16.40;46.67;101234.50;692591;28;6987;-67
2022/05/22 00:11:50;;;;;;;1017.00;951.40;;;;;;;16.41;47.03;101236.19;691771;28;44149;-66
2022/05/22 00:12:11;;;;;;;1018.28;952.67;;;;;;;16.37;46.66;101226.72;692088;28;23449;-68
2022/05/22 00:12:34;;;;;;;1022.58;956.55;;;;;;;16.40;46.62;101232.59;690506;28;46341;-67
2022/05/22 00:12:55;;;;;;;1019.78;953.85;;;;;;;16.40;46.85;101231.75;691577;28;44172;-67
2022/05/22 00:13:17;;;;;;;1018.50;952.72;;;;;;;16.42;46.96;101234.28;691407;28;22395;-67
2022/05/22 00:13:38;;;;;;;1023.20;957.35;;;;;;;16.42;47.01;101239.75;691098;28;45214;-67
2022/05/22 00:13:59;;;;;;;1021.67;955.88;;;;;;;16.42;47.08;101239.75;692424;28;21020;-67
2022/05/22 00:14:21;;;;;;;1019.30;953.63;;;;;;;16.40;46.71;101231.75;690871;28;46631;-67
2022/05/22 00:14:43;;;;;;;1024.50;958.78;;;;;;;16.40;47.01;101238.03;691626;28;46377;-67
2022/05/22 00:15:06;;;;;;;1021.10;955.47;;;;;;;16.38;46.68;101234.69;692155;28;22379;-67
2022/05/22 00:15:28;;;;;;;1027.65;961.58;;;;;;;16.35;46.69;101226.09;690081;28;91870;-67
2022/05/22 00:16:36;;;;;;;1032.32;966.00;;;;;;;16.36;47.05;101236.78;678242;28;157849;-67
2022/05/22 00:17:01;;;;;;;1087.63;999.90;;;;;;;16.39;47.24;101238.25;680162;28;136144;-67
2022/05/22 00:17:22;;;;;;;1120.18;999.90;;;;;;;16.38;47.10;101231.13;682806;28;46435;-67
2022/05/22 00:17:43;;;;;;;1107.22;999.90;;;;;;;16.40;46.95;101231.75;691354;28;21818;-67
2022/05/22 00:18:05;;;;;;;1054.90;986.67;;;;;;;16.39;47.10;101232.78;691355;28;44107;-67
2022/05/22 00:18:26;;;;;;;1065.15;996.72;;;;;;;16.40;46.91;101235.31;691049;28;46279;-67
2022/05/22 00:18:48;;;;;;;1082.18;999.90;;;;;;;16.39;46.88;101235.53;692455;28;22189;-67
2022/05/22 00:19:10;;;;;;;1066.00;997.17;;;;;;;16.40;46.95;101238.03;692144;28;21502;-67
2022/05/22 00:19:33;;;;;;;1001.28;936.47;;;;;;;16.42;47.15;101231.56;690006;28;92264;-67
2022/05/22 00:19:54;;;;;;;1023.60;957.63;;;;;;;16.37;46.98;101224.81;691575;28;45030;-67
2022/05/22 00:20:15;;;;;;;999.58;934.83;;;;;;;16.42;47.11;101229.66;691617;28;21522;-67
2022/05/22 00:20:37;;;;;;;1004.60;939.70;;;;;;;16.43;47.09;101235.97;692470;28;23391;-67
2022/05/22 00:20:58;;;;;;;1001.30;936.38;;;;;;;16.41;46.95;101225.28;690340;28;46346;-67
2022/05/22 00:21:19;;;;;;;1009.63;944.33;;;;;;;16.44;46.93;101240.38;691740;28;22312;-67
2022/05/22 00:21:41;;;;;;;1010.05;944.88;;;;;;;16.43;46.98;101234.09;692124;28;23470;-67
2022/05/22 00:22:03;;;;;;;1005.95;940.85;;;;;;;16.39;46.90;101235.53;691417;28;46323;-67
2022/05/22 00:22:25;;;;;;;1015.63;949.92;;;;;;;16.39;47.08;101224.63;690897;28;45254;-68
2022/05/22 00:22:46;;;;;;;1028.03;961.78;;;;;;;16.39;47.05;101220.03;691278;28;45318;-67
2022/05/22 00:23:09;;;;;;;1029.88;963.70;;;;;;;16.43;46.93;101235.97;692048;28;22227;-67
2022/05/22 00:23:33;;;;;;;1027.05;961.05;;;;;;;16.43;47.10;101231.34;690659;28;69288;-67
2022/05/22 00:23:54;;;;;;;1000.65;935.60;;;;;;;16.43;47.05;101234.09;689641;28;92407;-67
2022/05/22 00:24:18;;;;;;;1002.35;937.55;;;;;;;16.43;46.98;101234.09;691863;28;22223;-67
2022/05/22 00:24:42;;;;;;;1001.88;937.08;;;;;;;16.44;46.89;101229.47;688527;28;138836;-67
2022/05/22 00:25:05;;;;;;;1009.13;943.97;;;;;;;16.42;47.09;101232.38;691580;28;44225;-68
2022/05/22 00:25:26;;;;;;;1033.63;967.28;;;;;;;16.43;47.24;101230.53;690717;28;69873;-67
2022/05/22 00:25:48;;;;;;;1022.17;956.72;;;;;;;16.42;47.09;101226.94;692686;28;21369;-67
2022/05/22 00:26:09;;;;;;;1014.38;949.00;;;;;;;16.43;46.88;101230.53;691466;28;22472;-67
2022/05/22 00:26:31;;;;;;;1020.50;954.75;;;;;;;16.40;47.13;101232.59;692073;28;1605;-68
2022/05/22 00:26:52;;;;;;;1025.75;959.58;;;;;;;16.42;46.99;101237.84;692442;28;22372;-68
2022/05/22 00:27:15;;;;;;;1023.55;957.78;;;;;;;16.42;47.06;101234.28;692371;28;1182;-68
2022/05/22 00:27:36;;;;;;;1020.35;954.45;;;;;;;16.38;47.24;101223.78;691338;28;46200;-68
2022/05/22 00:27:58;;;;;;;1030.60;964.08;;;;;;;16.40;47.02;101229.03;690512;28;45074;-67
2022/05/22 00:28:19;;;;;;;1013.20;947.95;;;;;;;16.40;47.02;101229.88;692012;28;21378;-67
2022/05/22 00:28:40;;;;;;;1012.45;947.15;;;;;;;16.40;47.08;101229.03;692237;28;22570;-67
2022/05/22 00:29:02;;;;;;;1015.97;950.58;;;;;;;16.40;47.31;101226.31;689432;28;22389;-67
2022/05/22 00:29:23;;;;;;;1014.40;949.03;;;;;;;16.39;47.47;101227.34;684902;28;67412;-67
2022/05/22 00:29:45;;;;;;;1018.53;953.03;;;;;;;16.36;47.13;101227.75;687361;28;22397;-67
2022/05/22 00:30:08;;;;;;;1028.35;962.22;;;;;;;16.37;47.53;101232.16;687268;28;21634;-67
2022/05/22 00:30:29;;;;;;;1027.72;961.50;;;;;;;16.36;47.40;101227.75;684692;28;69362;-67
2022/05/22 00:30:50;;;;;;;1035.22;968.70;;;;;;;16.34;47.50;101233.41;684860;28;21213;-67
2022/05/22 00:31:11;;;;;;;1030.18;964.05;;;;;;;16.37;47.57;101229.44;686349;28;21551;-67
2022/05/22 00:31:33;;;;;;;1010.17;945.08;;;;;;;16.32;47.26;101224.59;689466;28;22395;-67
2022/05/22 00:31:55;;;;;;;1010.17;945.00;;;;;;;16.31;47.23;101222.91;690182;28;23433;-67
2022/05/22 00:32:16;;;;;;;1025.68;959.67;;;;;;;16.32;47.50;101231.94;687888;28;69083;-67
2022/05/22 00:32:37;;;;;;;1024.70;958.53;;;;;;;16.32;47.56;101232.78;689413;28;21340;-67
2022/05/22 00:33:00;;;;;;;1013.03;947.65;;;;;;;16.31;47.56;101222.91;692467;28;22411;-67
2022/05/22 00:33:22;;;;;;;1008.67;943.60;;;;;;;16.31;47.58;101230.25;689804;28;69427;-67
2022/05/22 00:33:44;;;;;;;1013.45;948.25;;;;;;;16.30;47.54;101236.75;691286;28;45224;-67
2022/05/22 00:34:05;;;;;;;1020.05;954.50;;;;;;;16.28;47.39;101223.31;690838;28;1647;-67
2022/05/22 00:34:26;;;;;;;1014.35;949.08;;;;;;;16.28;47.69;101225.22;690893;28;45214;-67
2022/05/22 00:34:48;;;;;;;1013.20;947.88;;;;;;;16.29;47.41;101224.19;689900;28;23480;-67
2022/05/22 00:35:10;;;;;;;1020.75;954.97;;;;;;;16.27;47.59;101232.56;687565;28;46328;-67
2022/05/22 00:35:33;;;;;;;1060.90;993.30;;;;;;;16.25;47.61;101226.44;685916;28;90299;-67
2022/05/22 00:35:54;;;;;;;1078.75;999.90;;;;;;;16.25;47.45;101221.00;685703;28;22403;-71
2022/05/22 00:36:15;;;;;;;1034.28;967.65;;;;;;;16.15;47.56;101207.75;686600;28;21510;-67
2022/05/22 00:36:37;;;;;;;999.03;934.20;;;;;;;16.24;47.50;101227.50;687432;28;22283;-67
2022/05/22 00:36:58;;;;;;;1038.32;971.70;;;;;;;16.21;47.52;101220.56;688794;28;46304;-67
2022/05/22 00:37:20;;;;;;;1029.20;962.92;;;;;;;16.25;47.09;101223.72;689254;28;22405;-67
2022/05/22 00:37:44;;;;;;;1031.50;965.15;;;;;;;16.22;47.53;101218.66;687516;28;92857;-67
2022/05/22 00:38:05;;;;;;;1026.40;960.33;;;;;;;16.24;47.49;101222.06;688774;28;44332;-67
2022/05/22 00:38:27;;;;;;;1020.75;954.80;;;;;;;16.16;47.48;101214.91;689018;28;23123;-67
2022/05/22 00:38:49;;;;;;;1057.90;990.08;;;;;;;16.21;47.65;101215.13;688665;28;45070;-67
2022/05/22 00:39:11;;;;;;;1052.35;984.97;;;;;;;16.22;47.61;101221.41;686392;28;11555;-67
2022/05/22 00:39:32;;;;;;;1071.75;999.90;;;;;;;16.23;47.67;101222.25;684198;28;22388;-67
2022/05/22 00:39:53;;;;;;;1061.97;993.92;;;;;;;16.21;47.27;101222.47;682322;28;1010;-67
2022/05/22 00:40:15;;;;;;;1040.03;972.97;;;;;;;16.23;47.49;101223.09;681482;28;23507;-67
2022/05/22 00:40:37;;;;;;;1041.13;974.23;;;;;;;16.19;47.48;101222.66;680316;29;46465;-67
2022/05/22 00:40:58;;;;;;;1042.72;975.65;;;;;;;16.19;47.71;101216.34;680334;28;46357;-67
2022/05/22 00:41:19;;;;;;;1027.63;961.42;;;;;;;16.23;47.46;101219.53;682853;28;23495;-67
2022/05/22 00:41:41;;;;;;;1021.63;955.92;;;;;;;16.17;47.80;101219.28;682353;28;22335;-67
2022/05/22 00:42:13;;;;;;;1028.45;962.22;;;;;;;16.21;47.30;101223.28;681175;28;47208;-67
2022/05/22 00:42:34;;;;;;;1038.25;971.45;;;;;;;16.20;47.59;101221.59;680755;28;158355;-67
2022/05/22 00:42:58;;;;;;;1061.55;993.83;;;;;;;16.21;47.51;101219.72;681881;28;92294;-67
2022/05/22 00:43:30;;;;;;;1066.20;998.05;;;;;;;16.21;47.56;101222.47;685562;28;47340;-67
2022/05/22 00:43:54;;;;;;;1026.18;960.20;;;;;;;16.18;47.46;101211.97;685974;28;137084;-67
2022/05/22 00:44:16;;;;;;;1009.97;944.72;;;;;;;16.21;47.21;101211.56;686596;28;90642;-67
2022/05/22 00:44:37;;;;;;;1006.28;940.80;;;;;;;16.21;47.30;101225.19;686535;28;21510;-67
2022/05/22 00:44:59;;;;;;;999.10;934.50;;;;;;;16.21;47.36;101223.28;689148;28;23433;-67
2022/05/22 00:45:20;;;;;;;1005.05;940.13;;;;;;;16.21;47.42;101220.56;688715;28;44372;-67
2022/05/22 00:45:43;;;;;;;1003.03;938.15;;;;;;;16.21;47.40;101222.47;688613;28;46120;-67
2022/05/22 00:46:06;;;;;;;1008.08;942.80;;;;;;;16.19;47.46;101222.66;688786;28;22389;-67
2022/05/22 00:46:29;;;;;;;1036.32;969.78;;;;;;;16.19;47.51;101227.25;688435;28;69483;-67
2022/05/22 00:46:51;;;;;;;1035.45;968.88;;;;;;;16.16;47.41;101223.06;687229;28;69316;-67
2022/05/22 00:47:12;;;;;;;1021.10;955.20;;;;;;;16.17;47.54;101218.44;687557;28;69743;-67
2022/05/22 00:47:34;;;;;;;1022.97;956.65;;;;;;;16.17;47.44;101222.00;687747;28;21516;-67
2022/05/22 00:47:56;;;;;;;1020.50;954.72;;;;;;;16.17;47.53;101222.00;687447;28;47550;-67
2022/05/22 00:48:18;;;;;;;1013.08;947.72;;;;;;;16.15;47.17;101221.38;690024;28;23686;-67
2022/05/22 00:48:40;;;;;;;1026.63;960.58;;;;;;;16.15;47.44;101218.66;691111;28;45274;-67
2022/05/22 00:49:06;;;;;;;1013.78;948.30;;;;;;;16.13;47.34;101220.75;688579;28;44346;-67
2022/05/22 00:49:30;;;;;;;1013.85;948.20;;;;;;;16.13;47.48;101223.47;687191;28;115872;-67
2022/05/22 00:49:59;;;;;;;1034.82;968.45;;;;;;;16.13;47.52;101220.75;685989;28;114936;-67
2022/05/22 00:50:21;;;;;;;1021.97;955.70;;;;;;;16.12;47.29;101227.22;681701;28;135868;-67
2022/05/22 00:50:42;;;;;;;1025.80;959.80;;;;;;;16.11;47.56;101220.13;685657;28;44348;-67
2022/05/22 00:51:07;;;;;;;1021.80;956.03;;;;;;;16.11;47.31;101224.69;685090;28;45259;-67
2022/05/22 00:51:34;;;;;;;1010.45;945.15;;;;;;;16.10;47.55;101215.69;684454;28;92094;-67
2022/05/22 00:51:58;;;;;;;1004.00;939.00;;;;;;;16.07;47.49;101218.00;685540;28;138064;-67
2022/05/22 00:52:23;;;;;;;1017.40;951.85;;;;;;;16.07;47.25;101223.44;688418;28;90320;-67
2022/05/22 00:52:48;;;;;;;1030.32;963.53;;;;;;;16.03;47.55;101214.81;685610;28;114967;-67
2022/05/22 00:53:10;;;;;;;1022.42;956.35;;;;;;;16.00;47.57;101209.75;687966;28;115011;-67
2022/05/22 00:53:33;;;;;;;1023.08;957.08;;;;;;;16.00;47.44;101216.06;685222;28;47500;-67
2022/05/22 00:53:58;;;;;;;1029.13;962.85;;;;;;;15.96;47.37;101213.94;684286;28;92721;-67
2022/05/22 00:54:25;;;;;;;1037.25;970.70;;;;;;;15.99;47.59;101219.84;680030;28;137881;-67
2022/05/22 00:54:50;;;;;;;1030.65;964.40;;;;;;;15.98;47.69;101217.31;681814;28;90313;-67
2022/05/22 00:55:15;;;;;;;1016.95;951.17;;;;;;;15.97;47.86;101218.34;680824;28;113594;-67
2022/05/22 00:55:36;;;;;;;1013.92;948.55;;;;;;;15.96;47.50;101222.97;682899;28;136869;-67
2022/05/22 00:55:58;;;;;;;1008.65;943.30;;;;;;;15.95;47.73;101223.16;685844;28;21371;-67
2022/05/22 00:56:25;;;;;;;1007.63;942.33;;;;;;;15.94;47.69;101216.88;686523;28;92240;-67
2022/05/22 00:56:51;;;;;;;1020.03;954.25;;;;;;;15.95;47.66;101217.72;684822;28;90139;-67
2022/05/22 00:57:17;;;;;;;1000.10;935.08;;;;;;;15.94;47.79;101216.88;682142;28;136191;-67
2022/05/22 00:57:40;;;;;;;1011.10;945.72;;;;;;;15.95;47.39;101221.25;682697;28;135943;-67
2022/05/22 00:58:07;;;;;;;1004.70;939.55;;;;;;;15.92;47.84;101213.50;687081;28;90697;-67
2022/05/22 00:58:30;;;;;;;1012.63;947.22;;;;;;;15.93;47.63;101217.06;685214;28;138495;-67
2022/05/22 00:58:53;;;;;;;1017.70;951.88;;;;;;;15.96;47.87;101213.94;685333;28;92266;-67
2022/05/22 00:59:17;;;;;;;1042.22;975.00;;;;;;;15.94;47.74;101210.56;686842;28;69117;-67
2022/05/22 00:59:43;;;;;;;1107.03;999.90;;;;;;;15.96;47.59;101216.69;688638;28;67564;-67
2022/05/22 01:00:08;;;;;;;1091.10;999.90;;;;;;;15.95;47.73;101220.44;683755;28;161066;-67
2022/05/22 01:00:33;;;;;;;1005.97;940.80;;;;;;;15.97;47.81;101221.94;686838;28;135921;-67
2022/05/22 01:00:54;;;;;;;1014.25;948.85;;;;;;;15.98;47.61;101214.59;688021;28;115317;-67
2022/05/22 01:01:16;;;;;;;1014.47;949.03;;;;;;;15.99;47.77;101216.28;691506;28;22396;-67
2022/05/22 01:01:37;;;;;;;1025.97;959.92;;;;;;;15.95;47.73;101212.25;692182;28;21543;-67
2022/05/22 01:02:00;;;;;;;1061.75;993.90;;;;;;;15.99;47.59;101217.09;693538;28;21566;-67
2022/05/22 01:02:21;;;;;;;1062.07;994.15;;;;;;;15.99;47.66;101216.28;690028;28;69827;-67
2022/05/22 01:03:27;;;;;;;1029.47;963.30;;;;;;;15.95;47.48;101209.53;684436;28;161245;-67
2022/05/22 01:03:50;;;;;;;1024.53;958.67;;;;;;;16.00;47.82;101218.81;683468;28;115188;-67
2022/05/22 01:04:16;;;;;;;1028.15;962.25;;;;;;;16.00;47.72;101226.09;686710;28;45227;-67
2022/05/22 01:04:45;;;;;;;1025.93;959.97;;;;;;;15.98;47.65;101220.88;688018;28;137942;-67
2022/05/22 01:05:08;;;;;;;1034.50;968.05;;;;;;;16.00;47.42;101224.25;690697;28;44233;-67
2022/05/22 01:05:29;;;;;;;1029.03;962.75;;;;;;;15.96;47.79;101217.50;690879;28;45481;-67
2022/05/22 01:05:51;;;;;;;1021.60;955.60;;;;;;;15.98;47.55;101223.59;694177;28;22395;-68
2022/05/22 01:06:16;;;;;;;1025.20;959.05;;;;;;;15.97;47.68;101221.94;691798;28;45038;-67
2022/05/22 01:06:37;;;;;;;1036.90;970.22;;;;;;;15.93;47.80;101217.06;688596;28;115221;-67
2022/05/22 01:07:08;;;;;;;1028.15;961.92;;;;;;;15.95;47.64;101224.00;688059;28;138722;-67
2022/05/22 01:07:29;;;;;;;1040.43;973.65;;;;;;;15.95;47.33;101228.59;688184;28;115968;-67
2022/05/22 01:07:50;;;;;;;1043.72;976.78;;;;;;;15.92;47.82;101229.84;691599;28;22303;-67
2022/05/22 01:08:11;;;;;;;1031.47;965.10;;;;;;;15.92;47.42;101226.28;689594;28;23342;-67
2022/05/22 01:08:37;;;;;;;1026.20;960.08;;;;;;;15.87;47.64;101215.16;689090;28;33125;-67
2022/05/22 01:08:58;;;;;;;1015.90;950.15;;;;;;;15.92;47.48;101229.00;686795;28;90038;-67
2022/05/22 01:09:19;;;;;;;1016.15;950.50;;;;;;;15.90;47.56;101218.31;689302;28;22335;-67
2022/05/22 01:09:41;;;;;;;1029.20;963.05;;;;;;;15.87;47.61;101221.44;689095;28;22159;-67
2022/05/22 01:10:05;;;;;;;1034.28;967.78;;;;;;;15.88;47.60;101223.13;687971;28;90129;-67
2022/05/22 01:10:31;;;;;;;1020.10;954.25;;;;;;;15.87;47.90;101221.44;688278;28;46595;-67
2022/05/22 01:10:55;;;;;;;1020.80;955.03;;;;;;;15.83;47.73;101211.97;686807;28;136245;-67
2022/05/22 01:11:20;;;;;;;1009.33;944.05;;;;;;;15.85;48.02;101218.06;687465;28;112077;-67
2022/05/22 01:11:41;;;;;;;1047.50;980.25;;;;;;;15.81;47.75;101212.16;685313;28;138079;-67
2022/05/22 01:12:06;;;;;;;1084.65;999.90;;;;;;;15.82;47.97;101219.31;685491;28;47466;-67
2022/05/22 01:12:28;;;;;;;1075.20;999.90;;;;;;;15.83;48.05;101221.00;683427;28;90374;-67
2022/05/22 01:12:51;;;;;;;1094.32;999.90;;;;;;;15.83;47.77;101223.72;683748;28;92365;-67
2022/05/22 01:13:13;;;;;;;1110.93;999.90;;;;;;;15.83;47.97;101220.13;687420;28;22264;-68
2022/05/22 01:13:38;;;;;;;1090.22;999.90;;;;;;;15.84;48.15;101219.09;686791;28;44987;-67
2022/05/22 01:14:05;;;;;;;1077.03;999.90;;;;;;;15.83;47.79;101218.28;685368;28;114725;-67
2022/05/22 01:14:26;;;;;;;1073.50;999.90;;;;;;;15.82;47.84;101222.03;685191;28;137898;-67
2022/05/22 01:14:56;;;;;;;1117.20;999.90;;;;;;;15.80;47.90;101226.00;682612;28;137930;-67
2022/05/22 01:15:18;;;;;;;1143.93;999.90;;;;;;;15.79;47.82;101219.72;686462;28;21528;-67
2022/05/22 01:15:40;;;;;;;1135.68;999.90;;;;;;;15.79;48.11;101222.44;684854;28;69412;-67
2022/05/22 01:16:03;;;;;;;1130.60;999.90;;;;;;;15.76;48.27;101211.06;687715;28;45224;-67
2022/05/22 01:16:25;;;;;;;1128.95;999.90;;;;;;;15.79;48.19;101218.88;686061;28;45275;-67
2022/05/22 01:16:47;;;;;;;1124.40;999.90;;;;;;;15.80;48.00;101215.94;683374;28;46359;-67
2022/05/22 01:17:11;;;;;;;1113.40;999.90;;;;;;;15.79;48.26;101218.88;683812;28;43679;-67
2022/05/22 01:17:39;;;;;;;1111.05;999.90;;;;;;;15.77;48.24;101208.19;684333;28;91364;-67
2022/05/22 01:18:00;;;;;;;1080.05;999.90;;;;;;;15.81;48.14;101214.91;682233;28;137856;-67
2022/05/22 01:18:21;;;;;;;1071.72;999.90;;;;;;;15.76;48.41;101205.63;684289;28;22245;-67
2022/05/22 01:18:44;;;;;;;1102.63;999.90;;;;;;;15.80;48.44;101213.22;684237;28;21346;-67
2022/05/22 01:19:10;;;;;;;1128.60;999.90;;;;;;;15.81;48.01;101211.34;682826;28;92319;-67
2022/05/22 01:19:31;;;;;;;1141.95;999.90;;;;;;;15.83;48.37;101220.13;682108;28;139237;-68
2022/05/22 01:19:54;;;;;;;1135.55;999.90;;;;;;;15.80;48.14;101217.84;686708;28;23441;-68
2022/05/22 01:20:17;;;;;;;1126.53;999.90;;;;;;;15.82;48.29;101216.59;684021;28;45316;-67
2022/05/22 01:20:45;;;;;;;1131.68;999.90;;;;;;;15.85;48.12;101221.63;685874;28;92686;-67
2022/05/22 01:21:10;;;;;;;1135.95;999.90;;;;;;;15.85;48.14;101218.91;681624;28;138636;-67
2022/05/22 01:21:32;;;;;;;1135.28;999.90;;;;;;;15.86;48.01;101214.28;685489;28;116248;-68
2022/05/22 01:21:59;;;;;;;1132.85;999.90;;;;;;;15.87;48.25;101218.72;685974;28;1046;-67
2022/05/22 01:22:22;;;;;;;1130.68;999.90;;;;;;;15.79;48.23;101208.81;681923;28;136190;-67
2022/05/22 01:22:43;;;;;;;1128.70;999.90;;;;;;;15.88;48.14;101219.53;687826;28;45246;-67
2022/05/22 01:23:05;;;;;;;1140.93;999.90;;;;;;;15.88;47.88;101223.13;688479;28;22377;-67
2022/05/22 01:23:27;;;;;;;1136.53;999.90;;;;;;;15.87;48.22;101226.88;686140;28;22305;-67
2022/05/22 01:23:48;;;;;;;1129.22;999.90;;;;;;;15.89;48.22;101226.69;684781;28;44821;-67
2022/05/22 01:24:16;;;;;;;1127.72;999.90;;;;;;;15.86;48.29;101222.47;680426;28;137966;-67
2022/05/22 01:24:37;;;;;;;1137.88;999.90;;;;;;;15.88;47.93;101214.09;685527;28;22399;-67
2022/05/22 01:25:00;;;;;;;1113.90;999.90;;;;;;;15.87;48.07;101216.00;686551;28;46225;-67
2022/05/22 01:25:21;;;;;;;1096.30;999.90;;;;;;;15.85;47.94;101213.47;685592;28;47019;-67
2022/05/22 01:25:42;;;;;;;1099.25;999.90;;;;;;;15.86;47.90;101222.47;687954;28;23462;-67
2022/05/22 01:26:03;;;;;;;1091.88;999.90;;;;;;;15.86;48.28;101219.75;688216;28;46952;-68
2022/05/22 01:26:28;;;;;;;1074.20;999.90;;;;;;;15.84;48.00;101219.09;688831;28;21531;-68
2022/05/22 01:27:02;;;;;;;1068.53;999.88;;;;;;;15.86;48.12;101225.19;684238;28;161415;-67
2022/05/22 01:27:40;;;;;;;1081.18;999.90;;;;;;;15.86;48.05;101227.91;682215;28;137404;-67
2022/05/22 01:28:19;;;;;;;1084.25;999.90;;;;;;;15.80;48.20;101221.41;681738;28;135810;-67
2022/05/22 01:28:40;;;;;;;1035.32;968.28;;;;;;;15.84;48.03;101233.56;679658;28;115187;-67
2022/05/22 01:29:06;;;;;;;1025.75;959.55;;;;;;;15.83;47.93;101229.16;680230;28;115302;-67
2022/05/22 01:29:28;;;;;;;1014.38;948.65;;;;;;;15.80;48.21;101215.13;680812;28;44337;-67
2022/05/22 01:29:49;;;;;;;1024.55;958.42;;;;;;;15.78;48.18;101217.19;681105;28;23471;-67
2022/05/22 01:30:13;;;;;;;1042.13;975.15;;;;;;;15.81;48.02;101236.69;678544;28;46482;-67
2022/05/22 01:30:36;;;;;;;1045.00;977.97;;;;;;;15.77;48.24;101227.25;677297;29;90660;-67
2022/05/22 01:31:00;;;;;;;1031.53;965.35;;;;;;;15.74;48.21;101224.88;675914;28;115493;-67
2022/05/22 01:31:24;;;;;;;1027.22;961.28;;;;;;;15.76;48.17;101230.13;680308;28;91254;-67
2022/05/22 01:31:46;;;;;;;1029.07;963.15;;;;;;;15.76;48.60;101230.13;682933;28;22401;-67
2022/05/22 01:32:09;;;;;;;1024.43;958.30;;;;;;;15.70;48.51;101217.31;681694;28;44320;-67
2022/05/22 01:32:32;;;;;;;1020.85;954.63;;;;;;;15.73;48.39;101227.81;682688;28;64360;-67
2022/05/22 01:32:53;;;;;;;1032.22;965.85;;;;;;;15.70;48.41;101225.47;683395;28;69500;-67
2022/05/22 01:33:16;;;;;;;1036.32;969.78;;;;;;;15.71;48.35;101227.19;684915;28;42019;-67
2022/05/22 01:33:42;;;;;;;1035.50;968.92;;;;;;;15.68;48.82;101222.97;685970;28;1510;-67
2022/05/22 01:34:03;;;;;;;1031.65;965.33;;;;;;;15.67;48.92;101232.16;684344;28;93657;-67
2022/05/22 01:34:24;;;;;;;1035.53;969.03;;;;;;;15.66;48.81;101227.78;687864;28;23432;-67
2022/05/22 01:34:46;;;;;;;1029.55;962.85;;;;;;;15.65;48.85;101228.81;687550;28;45267;-67
2022/05/22 01:35:09;;;;;;;1018.45;952.25;;;;;;;15.60;48.80;101220.41;684963;28;69747;-67
2022/05/22 01:35:32;;;;;;;1041.07;974.40;;;;;;;15.60;48.69;101220.41;682769;28;43229;-67
2022/05/22 01:36:00;;;;;;;1044.43;977.42;;;;;;;15.62;48.73;101226.47;677279;28;124716;-67
2022/05/22 01:36:21;;;;;;;1022.33;956.53;;;;;;;15.59;48.66;101222.25;681390;28;22389;-67
2022/05/22 01:36:47;;;;;;;1038.40;971.90;;;;;;;15.61;48.98;101230.22;676859;28;160747;-67
2022/05/22 01:37:11;;;;;;;1038.82;972.38;;;;;;;15.57;48.71;101232.50;680386;28;46262;-67
2022/05/22 01:37:35;;;;;;;1034.22;967.88;;;;;;;15.56;49.00;101222.66;680351;28;137684;-67
2022/05/22 01:37:58;;;;;;;1027.57;961.60;;;;;;;15.55;48.86;101229.16;681329;28;69297;-67
2022/05/22 01:38:21;;;;;;;1026.47;960.35;;;;;;;15.55;48.91;101225.56;678732;29;70382;-67
2022/05/22 01:38:44;;;;;;;1020.97;955.17;;;;;;;15.53;49.17;101228.50;680000;28;44348;-67
2022/05/22 01:39:09;;;;;;;1028.72;962.47;;;;;;;15.53;49.21;101220.31;678507;28;138636;-67
2022/05/22 01:39:43;;;;;;;1004.35;939.40;;;;;;;15.51;49.23;101227.84;679567;28;136219;-67
2022/05/22 01:40:07;;;;;;;1010.40;945.15;;;;;;;15.48;49.29;101226.38;682844;28;22413;-67
2022/05/22 01:40:28;;;;;;;1022.70;956.97;;;;;;;15.50;49.06;101224.31;682949;28;92284;-67
2022/05/22 01:40:49;;;;;;;1012.30;947.05;;;;;;;15.47;49.09;101223.88;689297;28;22400;-67
2022/05/22 01:41:18;;;;;;;1024.22;958.13;;;;;;;15.48;49.26;101218.19;682799;28;157596;-67
2022/05/22 01:41:40;;;;;;;1026.32;960.33;;;;;;;15.48;49.59;101220.09;687970;28;45281;-67
2022/05/22 01:42:01;;;;;;;1022.65;956.63;;;;;;;15.44;49.42;101216.94;686595;28;22398;-67
2022/05/22 01:42:22;;;;;;;1039.57;972.38;;;;;;;15.44;49.60;101216.94;684385;28;45327;-67
2022/05/22 01:42:45;;;;;;;1069.88;999.90;;;;;;;15.43;49.71;101220.69;683668;28;23548;-67
2022/05/22 01:43:06;;;;;;;1057.18;989.63;;;;;;;15.41;49.84;101222.78;680863;28;45065;-67